Immagine casuale
Testata Regione Lazio ARSIAL SIARL

Ultima Misura Rilevata

Temperatura, Umidità, Pioggia, Pressione Radiazione Solare, Venti, Evapotraspirazione, ecc.
Temperature diurne e notturne Direzione vento Legenda
Prov Stazione Data TMin TMed TMax UMed Pioggia PMed
FR ALATRI Basciano 02/02/2023 2,6 7,5 14,8 68 0 1.016
FR ALVITO Az. Ist. S. Benedetto 02/02/2023 -3,5 3,4 14,2 80 0,2 1.023
FR ANAGNI La Gloria 02/02/2023 -1,4 5,8 15,6 82 0 1.024
FR ARPINO Vigne Piane 02/02/2023 3,7 6,7 11,6 70 0 1.020
FR BOVILLE ERNICA Sasso 02/02/2023 0,3 7,1 16,1 72 0 1.023
FR CECCANO C.da Passo del Cardinale 02/02/2023 -4 3,7 16 87 0,2 ----
FR ESPERIA Modale 02/02/2023 N.D. N.D. N.D. N.D. N.D. 1.019
FR PASTENA Acero 02/02/2023 -6 1,4 14,5 85 0 1.020
FR PIGLIO Civitella 02/02/2023 -1 6 15,7 80 0 1.023
FR PONTECORVO Melfi di Sotto 02/02/2023 -2,1 5,1 16,2 83 0 ----
FR S. ELIA FIUMERAPIDO Portella 02/02/2023 -0,3 5,3 14,8 81 0 1.022
FR S. GIORGIO A LIRI Porto 02/02/2023 -2,9 4,1 16,4 86 0,2 1.020
FR SGURGOLA Campo Lungo 02/02/2023 -4 4,9 15,3 85 0,2 ----
FR VALLECORSA Serbatoio comunale 02/02/2023 2,9 7,4 14,6 75 0 1.021
LT APRILIA Le Ferriere 02/02/2023 N.D. N.D. N.D. N.D. N.D. N.D.
LT CISTERNA B.go Carso 02/02/2023 1,2 7,6 14,6 80 0,1 ----
LT CISTERNA Doganella di Ninfa 02/02/2023 2,3 8,1 15,6 75 0 1.022
LT CORI Portone 02/02/2023 4,6 9,9 17,6 68 0 1.023
LT FONDI Capratica 02/02/2023 -0,1 6,6 15,8 88 0 1.023
LT FORMIA Loc. Gianola 02/02/2023 0,4 7,4 16,4 86 0 ----
LT ITRI Valle Quercia 02/02/2023 7,4 11,5 16,7 74 0 1.022
LT MAENZA Casacotta 02/02/2023 0,2 6,9 15,9 83 0 1.019
LT MINTURNO Pulcherini 02/02/2023 6,4 10,1 15,1 70 0 1.024
LT PONTINIA Cotarda 02/02/2023 -1,2 7,2 18,3 82 0 1.019
LT SABAUDIA Acquaviva 02/02/2023 1,3 7,1 14 87 0 1.022
LT SONNINO Frasso 02/02/2023 5,4 10,3 17,3 70 0 1.022
RI ACCUMOLI Terracino 02/02/2023 -1,2 2,8 6,9 66 0 1.025
RI BORGOVELINO Ponte Basso 02/02/2023 -2,5 3,6 13,3 80 0 1.027
RI CANTALUPO S. Francesco 02/02/2023 0,4 5,5 13,4 87 0 ----
RI CASTEL DI TORA Monte di Tora 02/02/2023 -2,5 3,6 13 79 0 1.020
RI CASTELNUOVO FARFA C. Spadone 02/02/2023 3 7,6 14,8 78 0 ----
RI CONFIGNI Portella 02/02/2023 2,4 7 13,6 79 0 1.025
RI FARA SABINA Canneto 02/02/2023 4 8,8 15,9 68 0 1.024
RI FARA SABINA Sant'Andrea 02/02/2023 3,1 8,4 15,1 75 0 ----
RI MONTELEONE S. Prato Camino 02/02/2023 0,4 6,4 15,4 76 0 1.023
RI MONTOPOLI IN SABINA Colle Arcone 02/02/2023 2,5 7,9 14,2 81 0 ----
RI MONTOPOLI IN SABINA Villa Caprola 02/02/2023 2,8 8,6 17,2 87 0 ----
RI POGGIO CATINO Pastine 02/02/2023 3,5 8,3 15,4 73 0 ----
RI POGGIO NATIVO Casali 02/02/2023 2,9 7,4 12,9 76 0 ----
RI RIETI Piana di Rieti 02/02/2023 -2,9 3,4 13 84 0,1 1.027
RI SCANDRIGLIA Ponticelli 02/02/2023 2,7 7,2 13,3 74 0 ----
RM AGOSTA La Cisterna 02/02/2023 -1,8 4,3 14,6 77 0,2 1.027
RM BRACCIANO Prato Pianciano 02/02/2023 N.D. N.D. N.D. N.D. N.D. 1.020
RM CANALE MONTERANO Monte Virginio 02/02/2023 0,7 6,3 15,3 59 0,2 1.021
RM CERVETERI Campo di Mare 02/02/2023 5 9,6 14,5 78 0 ----
RM CIVITELLA S.PAOLO Le Cese 02/02/2023 2,8 7,8 14,4 77 0 1.023
RM FIUMICINO Maccarese 02/02/2023 2 8,5 16,5 85 0 1.022
RM FIUMICINO Testa di Lepre 02/02/2023 4,3 8,8 15,4 79 0 ----
RM FORMELLO Perazzeta 02/02/2023 3 8,8 15,3 61 0 ----
RM FRASCATI Prata Porci 02/02/2023 0,4 7,4 14,3 80 0 1.024
RM GENAZZANO Coop. La Sonnina 02/02/2023 -0,4 6,6 15,1 76 0 1.023
RM GROTTAFERRATA Valle Marciana 02/02/2023 2,9 7,4 13,8 79 0 1.024
RM LADISPOLI Palo Laziale 02/02/2023 2,1 9,1 14,2 79 0 1.024
RM LICENZA Colle Franco 02/02/2023 -0,7 5,1 14,7 80 0 1.019
RM MARCELLINA V. Campetella 02/02/2023 1,7 7,4 14,4 83 0 ----
RM MARINO Gotto d'Oro 02/02/2023 3,6 9 14,2 71 0 1.026
RM MONTECOMPATRI Colle Mattia 02/02/2023 0,8 7,7 14,4 78 0 1.025
RM MONTECOMPATRI Pantano Borghese 02/02/2023 -2 5,8 16,4 86 0 1.021
RM MONTELIBRETTI Bruciati 02/02/2023 0,8 7,1 16,6 81 0 ----
RM MONTEPORZIO Camaldoli 02/02/2023 0,9 5 9,1 88 0 1.025
RM MONTEROTONDO Grotta Marozza 02/02/2023 1,4 7,6 14,9 82 0 1.025
RM PALOMBARA Fonte Grande 02/02/2023 -0,3 6,1 14,9 74 0 ----
RM ROMA Capocotta 02/02/2023 3,9 9,1 15 82 0 ----
RM ROMA Ponte di Nona 02/02/2023 1,1 7,6 15,3 88 0 1.025
RM ROMA Via Lanciani 38 02/02/2023 4,4 9,4 15,6 86 0 1.022
RM S. GREGORIO C. Faustiniano 02/02/2023 2,6 7,4 14,4 75 0 1.019
RM VELLETRI Cantina Sperimentale 02/02/2023 1,8 7,7 15,4 74 0 1.020
RM VELLETRI Prato Lungo 02/02/2023 3 8,2 15,4 72 0 ----
RM ZAGAROLO Santa Apollara 02/02/2023 3 8 14,2 79 0 ----
VT ACQUAPENDENTE Falconiera 02/02/2023 -0,7 5,1 13,6 87 0 1.026
VT BAGNOREGIO Castell Cellesi 02/02/2023 3,1 7,1 12,5 83 0 ----
VT BASSANO R. Piano Mola 02/02/2023 2,9 8 16,5 81 0 1.017
VT BLERA Puntoni 02/02/2023 3 8,1 14,3 84 0 1.023
VT BOLSENA Capone 02/02/2023 2,1 7,6 15,3 85 0 1.026
VT BOLSENA Rentica 02/02/2023 2 6,6 12,9 85 0 ----
VT CANINO Diga Timone 02/02/2023 1,7 7,5 15,5 83 0 1.029
VT CANINO Pianacce 02/02/2023 N.D. N.D. N.D. N.D. N.D. N.D.
VT CANINO San Valeriano 02/02/2023 5,1 8,7 13,7 86 0 ----
VT CELLENO Acquaforte 02/02/2023 1,2 6,4 12,8 94 0 ----
VT CORCHIANO Pantalone 02/02/2023 0,5 7,3 15,8 80 0 1.023
VT FARNESE Gressa 02/02/2023 1,8 6,8 13,6 77 0 ----
VT FARNESE Pian di Sala 02/02/2023 -2,5 4,8 15 89 0,1 ----
VT GROTTE DI CASTRO Borghetto 02/02/2023 0,7 6,3 13,8 88 0 1.024
VT GROTTE DI CASTRO Purgatorio 02/02/2023 -0,2 5,8 14,5 85 0,2 1.023
VT LATERA Centro Florovivaistico 02/02/2023 -1,5 5,6 14,6 87 0 1.025
VT MONTALTO Le Murelle 02/02/2023 3,3 9 14,7 82 0 1.025
VT MONTALTO Pescia Romana 02/02/2023 2,6 8,9 16,9 85 0 1.022
VT MONTEFIASCONE Commenda 02/02/2023 2,6 8 14,6 86 0 ----
VT RONCIGLIONE Ponterotto 02/02/2023 1 7,3 14,4 82 0 ----
VT SORIANO CIMINO Pantane 02/02/2023 -1,9 5,7 14,4 79 0 1.025
VT SORIANO CIMINO Poggio di Chia 02/02/2023 0,7 6,1 13,9 88 0 ----
VT TARQUINIA Portaccia 02/02/2023 2,7 9,4 15,8 83 0 ----
VT TUSCANIA Montebello 02/02/2023 3,3 6,5 10,4 78 0 ----
VT VETRALLA Marchionato 02/02/2023 3,5 8,1 13,4 92 0 ----
VT VITERBO Pisello 02/02/2023 4,8 8 13,4 84 0 ----
N.D. = Dati Non Disponibili
---- = Sensore non presente

Le misure esposte sono grezze, ovvero non sono state validate.